Bourbon Astyanax — FMGV — position and weather

sailwx.info

Track history (hours):
 
Tides and Currents Weather Stations Pressure Air Temp Water Temp Dewpoint Dewpoint Depression Visibility Wind Speed Wind Dir Waves Ship Positions

Bourbon Astyanax

Last reported at 2018-Jan-03 22:54 UTC. Time now 2018-Jan-19 13:29 UTC.
Position N 04°31' W 002°06'.
Warning: this ship's position is 15 days out of date.

Length 67 m; draft 5.8 m.

Type: Tug. MMSI: 228322600.

Date/timePositionNaut miles runAvg speedWind from/ knotsBaromVisibWave heightAir tempDewpointWater temp
2018-Jan-03 22:54N 04°31' W 002°06'4 8.8
2018-Jan-03 22:30N 04°30' W 002°03'29 1.7
2018-Jan-03 05:28N 04°51' W 001°43'11 7.1
2018-Jan-03 03:53N 04°42' W 001°50'3 7.4
2018-Jan-03 03:30N 04°40' W 001°51'8 7.1
2018-Jan-03 02:23N 04°34' W 001°57'4 6.8
2018-Jan-03 01:48N 04°31' W 001°59'2 7.1
2018-Jan-03 01:28N 04°29' W 002°01'7 6.9
2018-Jan-03 00:32N 04°24' W 002°05'0 6.9
2018-Jan-03 00:28N 04°24' W 002°05'3 6.7
2018-Jan-03 00:00N 04°21' W 002°07'3 6.9
2018-Jan-02 23:30N 04°19' W 002°09'10 7.0
2018-Jan-02 22:08N 04°12' W 002°16'  
2017-Dec-26 08:45N 04°56' W 001°42'1 2.8
2017-Dec-26 08:26N 04°57' W 001°41'3 6.6
2017-Dec-26 08:00N 04°54' W 001°42'0 0.2
2017-Dec-26 07:31N 04°54' W 001°42'  
Track history (hours):
 
Tides and Currents Weather Stations Pressure Air Temp Water Temp Dewpoint Dewpoint Depression Visibility Wind Speed Wind Dir Waves Ship Positions

Bourbon Astyanax

Last reported at 2018-Jan-03 22:54 UTC. Time now 2018-Jan-19 13:29 UTC.
Position N 04°31' W 002°06'.
Warning: this ship's position is 15 days out of date.

Length 67 m; draft 5.8 m.

Type: Tug. MMSI: 228322600.

Date/timePositionNaut miles runAvg speedWind from/ knotsBaromVisibWave heightAir tempDewpointWater temp
2018-Jan-03 22:54N 04°31' W 002°06'4 8.8
2018-Jan-03 22:30N 04°30' W 002°03'29 1.7
2018-Jan-03 05:28N 04°51' W 001°43'11 7.1
2018-Jan-03 03:53N 04°42' W 001°50'3 7.4
2018-Jan-03 03:30N 04°40' W 001°51'8 7.1
2018-Jan-03 02:23N 04°34' W 001°57'4 6.8
2018-Jan-03 01:48N 04°31' W 001°59'2 7.1
2018-Jan-03 01:28N 04°29' W 002°01'7 6.9
2018-Jan-03 00:32N 04°24' W 002°05'0 6.9
2018-Jan-03 00:28N 04°24' W 002°05'3 6.7
2018-Jan-03 00:00N 04°21' W 002°07'3 6.9
2018-Jan-02 23:30N 04°19' W 002°09'10 7.0
2018-Jan-02 22:08N 04°12' W 002°16'  
2017-Dec-26 08:45N 04°56' W 001°42'1 2.8
2017-Dec-26 08:26N 04°57' W 001°41'3 6.6
2017-Dec-26 08:00N 04°54' W 001°42'0 0.2
2017-Dec-26 07:31N 04°54' W 001°42'  

Dump ship's entire track history